Time;durP1;ratioP1;P1;durP2;ratioP2;P2;SDS_P1;SDS_P2;PMS_P1;PMS_P2;Temp;Humidity;BMP_temperature;BMP_pressure;BME280_temperature;BME280_humidity;BME280_pressure;Samples;Min_cycle;Max_cycle;Signal;HPM_P1;HPM_P2
2022/05/16 00:01:40;;;;;;;5.53;1.75;;;12.30;99.90;;;;;;5061172;28;20384;-73
2022/05/16 00:04:06;;;;;;;5.30;1.70;;;12.30;99.90;;;;;;5061343;28;20051;-73
2022/05/16 00:06:32;;;;;;;4.88;1.77;;;12.30;99.90;;;;;;5044433;28;20078;-73
2022/05/16 00:08:58;;;;;;;4.40;1.73;;;12.30;99.90;;;;;;5060811;28;20479;-73
2022/05/16 00:11:24;;;;;;;4.97;1.85;;;12.20;99.90;;;;;;5060888;28;20092;-73
2022/05/16 00:13:50;;;;;;;3.53;1.90;;;12.20;99.90;;;;;;5077423;28;20055;-73
2022/05/16 00:16:16;;;;;;;2.55;1.48;;;12.20;99.90;;;;;;5094391;28;20036;-73
2022/05/16 00:18:42;;;;;;;2.03;1.45;;;12.20;99.90;;;;;;5060815;28;20043;-74
2022/05/16 00:21:07;;;;;;;3.72;1.75;;;12.20;99.90;;;;;;5060965;28;20051;-73
2022/05/16 00:23:33;;;;;;;3.10;1.30;;;12.20;99.90;;;;;;5077380;28;20048;-73
2022/05/16 00:25:59;;;;;;;3.90;1.67;;;12.20;99.90;;;;;;5077344;28;20466;-73
2022/05/16 00:28:24;;;;;;;3.78;1.70;;;12.20;99.90;;;;;;5077526;28;20040;-73
2022/05/16 00:30:50;;;;;;;4.15;2.00;;;12.20;99.90;;;;;;5060491;28;20040;-73
2022/05/16 00:33:16;;;;;;;4.18;1.63;;;13.00;99.90;;;;;;5077246;28;20455;-74
2022/05/16 00:35:42;;;;;;;3.35;1.83;;;12.20;99.90;;;;;;5060381;28;20526;-74
2022/05/16 00:38:08;;;;;;;1.70;1.15;;;12.60;99.90;;;;;;5060367;28;20450;-74
2022/05/16 00:40:33;;;;;;;2.78;1.02;;;12.20;99.90;;;;;;5060430;28;20079;-74
2022/05/16 00:43:05;;;;;;;4.35;2.15;;;12.20;99.90;;;;;;5043787;28;20376;-73
2022/05/16 00:45:31;;;;;;;3.55;1.65;;;12.20;99.90;;;;;;5060304;28;20119;-73
2022/05/16 00:47:58;;;;;;;3.10;1.40;;;12.20;99.90;;;;;;5076761;28;20522;-73
2022/05/16 00:50:25;;;;;;;2.30;1.33;;;12.20;99.90;;;;;;5060424;28;20040;-74
2022/05/16 00:52:51;;;;;;;7.32;1.98;;;12.20;99.90;;;;;;5060403;28;20486;-73
2022/05/16 00:55:22;;;;;;;3.38;1.50;;;12.20;99.90;;;;;;5060408;28;20058;-74
2022/05/16 00:57:52;;;;;;;1.45;1.23;;;12.20;99.90;;;;;;5076966;28;20066;-73
2022/05/16 01:00:28;;;;;;;3.77;1.93;;;12.20;99.90;;;;;;5077045;28;20048;-74
2022/05/16 01:05:45;;;;;;;3.50;1.30;;;12.20;99.90;;;;;;5076515;28;20063;-73
2022/05/16 01:08:22;;;;;;;2.33;1.30;;;12.20;99.90;;;;;;5076772;28;20415;-74
2022/05/16 01:10:48;;;;;;;2.70;1.40;;;12.10;99.90;;;;;;5076430;28;20032;-74
2022/05/16 01:13:14;;;;;;;4.80;1.40;;;12.20;99.90;;;;;;5059506;28;20079;-74
2022/05/16 01:15:43;;;;;;;1.55;1.13;;;12.10;99.90;;;;;;5093211;28;20047;-74
2022/05/16 01:18:12;;;;;;;1.98;1.20;;;12.10;99.90;;;;;;5059658;28;20036;-74
2022/05/16 01:20:46;;;;;;;5.47;1.50;;;12.20;99.90;;;;;;5059619;28;20101;-73
2022/05/16 01:23:15;;;;;;;5.88;1.65;;;12.20;99.90;;;;;;5076223;28;20044;-74
2022/05/16 01:25:41;;;;;;;2.88;1.08;;;12.20;99.90;;;;;;5076457;28;20131;-74
2022/05/16 01:28:07;;;;;;;2.08;1.15;;;12.10;99.90;;;;;;5059418;28;20075;-73
2022/05/16 01:30:40;;;;;;;2.72;1.40;;;12.10;99.90;;;;;;5059550;28;20036;-73
2022/05/16 01:33:06;;;;;;;3.97;1.13;;;12.20;99.90;;;;;;5075973;28;20097;-73
2022/05/16 01:35:32;;;;;;;1.98;1.13;;;12.10;99.90;;;;;;5076231;28;20127;-73
2022/05/16 01:40:43;;;;;;;1.55;1.02;;;12.10;99.90;;;;;;5075762;28;20126;-73
2022/05/16 01:43:10;;;;;;;1.67;1.00;;;12.10;99.90;;;;;;5075840;28;20123;-74
2022/05/16 01:45:37;;;;;;;4.40;1.42;;;12.10;99.90;;;;;;5075734;28;20040;-74
2022/05/16 01:48:03;;;;;;;3.67;1.15;;;12.10;99.90;;;;;;5059095;28;20051;-74
2022/05/16 01:50:29;;;;;;;2.90;1.10;;;12.10;99.90;;;;;;5058999;28;20039;-74
2022/05/16 01:52:55;;;;;;;2.28;1.20;;;12.00;99.90;;;;;;5075590;28;20032;-74
2022/05/16 01:55:20;;;;;;;1.70;0.90;;;12.10;99.90;;;;;;5075603;28;20040;-73
2022/05/16 01:57:47;;;;;;;3.22;1.20;;;12.10;99.90;;;;;;5075800;28;20089;-74
2022/05/16 02:00:15;;;;;;;2.33;1.15;;;12.10;99.90;;;;;;5058873;28;20040;-74
2022/05/16 02:02:42;;;;;;;1.75;1.08;;;12.00;99.90;;;;;;5059052;28;20406;-74
2022/05/16 02:05:09;;;;;;;3.08;1.25;;;12.00;99.90;;;;;;5075433;28;20439;-74
2022/05/16 02:07:35;;;;;;;2.70;1.20;;;12.00;99.90;;;;;;5058764;28;20047;-73
2022/05/16 02:10:01;;;;;;;1.48;1.00;;;12.30;99.90;;;;;;5075326;28;20036;-74
2022/05/16 02:12:28;;;;;;;2.58;1.13;;;12.00;99.90;;;;;;5075647;28;20087;-73
2022/05/16 02:14:54;;;;;;;3.22;1.10;;;12.20;99.90;;;;;;5074218;28;20056;-73
2022/05/16 02:17:19;;;;;;;0.82;0.60;;;12.00;99.90;;;;;;5075255;28;20066;-74
2022/05/16 02:19:45;;;;;;;1.25;0.90;;;12.80;99.90;;;;;;5058526;28;20044;-74
2022/05/16 02:24:55;;;;;;;1.25;0.90;;;11.90;99.90;;;;;;5060977;28;20047;-74
2022/05/16 02:27:20;;;;;;;1.95;1.00;;;11.90;99.90;;;;;;5075250;28;20036;-73
2022/05/16 02:29:46;;;;;;;3.45;1.20;;;11.90;99.90;;;;;;5058317;28;20044;-73
2022/05/16 02:32:13;;;;;;;1.08;0.68;;;11.90;99.90;;;;;;5058440;28;20458;-73
2022/05/16 02:34:39;;;;;;;1.50;1.00;;;11.90;99.90;;;;;;5058635;28;20040;-73
2022/05/16 02:37:06;;;;;;;3.22;1.25;;;12.10;99.90;;;;;;5075091;28;20036;-74
2022/05/16 02:39:32;;;;;;;1.95;1.10;;;11.90;99.90;;;;;;5058508;28;20036;-73
2022/05/16 02:41:58;;;;;;;1.92;1.02;;;11.80;99.90;;;;;;5058487;28;20044;-73
2022/05/16 02:44:24;;;;;;;1.35;0.90;;;11.80;99.90;;;;;;5075278;28;20055;-73
2022/05/16 02:46:50;;;;;;;1.95;0.82;;;11.80;99.90;;;;;;5074930;28;20039;-73
2022/05/16 02:49:16;;;;;;;3.38;1.17;;;11.80;99.90;;;;;;5041518;28;20063;-74
2022/05/16 02:51:42;;;;;;;2.22;1.00;;;12.00;99.90;;;;;;5058345;28;20079;-74
2022/05/16 02:54:08;;;;;;;0.73;0.60;;;11.70;99.90;;;;;;5058422;28;20039;-73
2022/05/16 02:56:34;;;;;;;1.35;1.02;;;11.80;99.90;;;;;;5075179;28;20396;-73
2022/05/16 02:59:00;;;;;;;1.45;1.05;;;11.70;99.90;;;;;;5058214;28;20055;-73
2022/05/16 03:01:26;;;;;;;1.85;1.10;;;11.70;99.90;;;;;;5058427;28;20155;-73
2022/05/16 03:03:52;;;;;;;1.73;0.98;;;11.60;99.90;;;;;;5074995;28;20518;-73
2022/05/16 03:06:18;;;;;;;2.17;1.63;;;12.10;99.90;;;;;;5074796;28;20036;-74
2022/05/16 03:08:44;;;;;;;2.47;0.90;;;11.60;99.90;;;;;;5074674;28;20094;-74
2022/05/16 03:11:10;;;;;;;2.90;1.23;;;11.60;99.90;;;;;;5075008;28;20044;-74
2022/05/16 03:13:36;;;;;;;4.03;0.93;;;11.60;99.90;;;;;;5074512;28;20109;-74
2022/05/16 03:16:03;;;;;;;3.65;0.90;;;11.60;99.90;;;;;;5074699;28;20044;-73
2022/05/16 03:18:30;;;;;;;2.20;1.17;;;11.60;99.90;;;;;;5057918;28;20036;-74
2022/05/16 03:20:57;;;;;;;1.42;0.90;;;11.60;99.90;;;;;;5041500;28;20135;-73
2022/05/16 03:23:22;;;;;;;1.13;0.70;;;11.50;99.90;;;;;;5074926;28;20496;-74
2022/05/16 03:25:49;;;;;;;2.13;0.90;;;11.60;99.90;;;;;;5058281;28;20083;-74
2022/05/16 03:28:15;;;;;;;6.45;1.00;;;11.50;99.90;;;;;;5061786;28;20044;-74
2022/05/16 03:30:42;;;;;;;2.47;0.93;;;11.50;99.90;;;;;;5061668;28;20036;-73
2022/05/16 03:33:08;;;;;;;0.75;0.70;;;11.50;99.90;;;;;;5078583;28;20483;-74
2022/05/16 03:35:34;;;;;;;1.38;0.82;;;11.50;99.90;;;;;;5078329;28;20137;-74
2022/05/16 03:38:00;;;;;;;0.90;0.80;;;11.50;99.90;;;;;;5078882;28;20475;-73
2022/05/16 03:40:45;;;;;;;2.55;0.88;;;11.50;99.90;;;;;;5061515;28;20043;-74
2022/05/16 03:43:14;;;;;;;0.80;0.65;;;11.50;99.90;;;;;;5078135;28;20040;-74
2022/05/16 03:45:41;;;;;;;1.33;1.10;;;11.50;99.90;;;;;;5061398;28;20051;-73
2022/05/16 03:48:08;;;;;;;3.35;1.02;;;11.40;99.90;;;;;;5078112;28;20040;-74
2022/05/16 03:50:35;;;;;;;1.10;0.75;;;11.40;99.90;;;;;;5077935;28;20043;-73
2022/05/16 03:53:01;;;;;;;2.30;0.98;;;11.40;99.90;;;;;;5061253;28;20043;-73
2022/05/16 03:55:28;;;;;;;1.70;0.77;;;11.40;99.90;;;;;;5078137;28;20047;-73
2022/05/16 03:57:54;;;;;;;2.00;0.93;;;11.30;99.90;;;;;;5077855;28;20036;-73
2022/05/16 04:00:21;;;;;;;1.20;0.68;;;11.40;99.90;;;;;;5061188;28;20043;-73
2022/05/16 04:02:47;;;;;;;0.80;0.60;;;11.40;99.90;;;;;;5077728;28;20050;-73
2022/05/16 04:05:16;;;;;;;0.90;0.50;;;11.40;99.90;;;;;;5061151;28;20130;-73
2022/05/16 04:07:42;;;;;;;1.88;0.93;;;11.40;99.90;;;;;;5077612;28;20119;-73
2022/05/16 04:10:08;;;;;;;1.35;0.95;;;11.40;99.90;;;;;;5061090;28;20040;-73
2022/05/16 04:12:34;;;;;;;1.13;0.60;;;11.30;99.90;;;;;;5077595;28;20108;-73
2022/05/16 04:15:00;;;;;;;3.17;1.05;;;11.40;99.90;;;;;;5044043;28;20084;-74
2022/05/16 04:17:26;;;;;;;0.75;0.70;;;11.40;99.90;;;;;;5060944;28;20046;-73
2022/05/16 04:19:52;;;;;;;2.95;1.15;;;11.40;99.90;;;;;;5077494;28;20048;-73
2022/05/16 04:22:18;;;;;;;1.90;0.75;;;11.50;99.90;;;;;;5060794;28;20036;-73
2022/05/16 04:24:44;;;;;;;1.63;0.65;;;11.50;99.90;;;;;;5060706;28;20036;-74
2022/05/16 04:27:09;;;;;;;3.05;0.75;;;11.50;99.90;;;;;;5060530;28;20040;-74
2022/05/16 04:29:35;;;;;;;1.05;0.80;;;11.50;99.90;;;;;;5060547;28;20040;-74
2022/05/16 04:32:01;;;;;;;2.05;1.00;;;11.60;99.90;;;;;;5060535;28;20380;-73
2022/05/16 04:34:26;;;;;;;1.67;0.77;;;11.60;99.90;;;;;;5060845;28;20079;-73
2022/05/16 04:36:52;;;;;;;1.33;0.88;;;11.60;99.90;;;;;;5060309;28;20036;-74
2022/05/16 04:39:18;;;;;;;2.08;0.82;;;11.70;99.90;;;;;;5076301;28;20083;-73
2022/05/16 04:44:27;;;;;;;4.65;1.02;;;11.80;99.90;;;;;;5062792;28;20044;-74
2022/05/16 04:46:53;;;;;;;1.75;1.00;;;11.80;99.90;;;;;;5094158;28;20044;-74
2022/05/16 04:49:19;;;;;;;1.45;0.93;;;11.90;99.90;;;;;;5076784;28;20046;-74
2022/05/16 04:51:44;;;;;;;2.00;0.82;;;11.90;99.90;;;;;;5076846;28;20062;-74
2022/05/16 04:54:10;;;;;;;4.25;1.17;;;11.90;99.90;;;;;;5076920;28;20032;-73
2022/05/16 04:56:36;;;;;;;1.83;1.02;;;12.00;99.90;;;;;;5060178;28;20044;-73
2022/05/16 04:59:02;;;;;;;1.65;1.02;;;12.00;99.90;;;;;;5060226;28;20040;-74
2022/05/16 05:01:28;;;;;;;2.70;1.10;;;12.00;99.90;;;;;;5076782;28;20048;-73
2022/05/16 05:03:54;;;;;;;3.13;1.20;;;12.00;99.90;;;;;;5094789;28;20055;-74
2022/05/16 05:06:20;;;;;;;1.33;0.80;;;12.00;99.90;;;;;;5060008;28;20128;-74
2022/05/16 05:08:46;;;;;;;2.58;0.88;;;12.20;99.90;;;;;;5059805;28;20048;-73
2022/05/16 05:16:40;;;;;;;2.17;1.05;;;12.20;99.90;;;;;;5062235;28;20051;-73
2022/05/16 05:19:06;;;;;;;3.25;0.90;;;12.20;99.90;;;;;;5059796;28;20040;-73
2022/05/16 05:21:32;;;;;;;2.17;1.10;;;12.30;99.90;;;;;;5076320;28;20040;-73
2022/05/16 05:23:58;;;;;;;2.40;1.00;;;12.40;99.90;;;;;;5076602;28;20373;-73
2022/05/16 05:26:24;;;;;;;1.25;0.90;;;12.50;99.90;;;;;;5043143;28;20040;-73
2022/05/16 05:28:50;;;;;;;3.30;0.98;;;12.60;99.90;;;;;;5059384;28;20137;-73
2022/05/16 05:31:18;;;;;;;3.05;1.00;;;13.50;99.90;;;;;;5059588;28;20040;-73
2022/05/16 05:33:44;;;;;;;1.85;0.90;;;13.00;99.90;;;;;;5076092;28;20033;-73
2022/05/16 05:36:11;;;;;;;4.28;1.15;;;13.10;99.90;;;;;;5076067;28;20040;-73
2022/05/16 05:38:38;;;;;;;1.80;1.17;;;13.30;99.90;;;;;;5076018;28;20048;-73
2022/05/16 05:41:04;;;;;;;1.80;1.00;;;13.50;99.90;;;;;;5042761;28;20040;-73
2022/05/16 05:43:31;;;;;;;1.30;0.70;;;13.70;99.90;;;;;;5059616;28;20441;-73
2022/05/16 05:45:56;;;;;;;1.85;1.10;;;13.70;99.90;;;;;;5075778;28;20052;-73
2022/05/16 05:48:22;;;;;;;2.65;1.23;;;13.70;99.90;;;;;;5075901;28;20112;-73
2022/05/16 05:50:48;;;;;;;4.50;1.38;;;13.70;99.90;;;;;;5075526;28;20071;-73
2022/05/16 05:53:14;;;;;;;1.58;1.00;;;13.70;99.90;;;;;;5075701;28;20039;-72
2022/05/16 05:55:40;;;;;;;2.17;1.20;;;13.60;99.90;;;;;;5058896;28;20032;-74
2022/05/16 05:58:06;;;;;;;1.40;1.02;;;13.80;99.90;;;;;;5058969;28;20036;-73
2022/05/16 06:00:31;;;;;;;1.65;1.05;;;13.80;99.90;;;;;;5075531;28;20488;-74
2022/05/16 06:03:00;;;;;;;2.70;1.10;;;13.90;99.90;;;;;;5075337;28;20051;-74
2022/05/16 06:05:27;;;;;;;2.63;1.30;;;14.00;99.90;;;;;;5059164;28;20051;-74
2022/05/16 06:07:53;;;;;;;1.42;0.75;;;14.10;99.90;;;;;;5059380;28;20050;-75
2022/05/16 06:10:19;;;;;;;4.03;1.10;;;14.20;99.90;;;;;;5058634;28;20093;-75
2022/05/16 06:12:46;;;;;;;1.17;0.80;;;14.30;99.90;;;;;;5058953;28;20072;-78
2022/05/16 06:15:13;;;;;;;2.15;1.10;;;14.40;99.90;;;;;;5058753;28;20079;-80
2022/05/16 06:17:40;;;;;;;1.50;0.90;;;14.40;99.90;;;;;;5058739;28;20044;-75
2022/05/16 06:20:08;;;;;;;1.15;0.82;;;14.40;99.90;;;;;;5058493;28;20048;-81
2022/05/16 06:22:34;;;;;;;3.22;1.35;;;14.40;99.90;;;;;;5058666;28;20111;-75
2022/05/16 06:27:50;;;;;;;1.55;1.00;;;14.50;99.90;;;;;;5075140;28;20039;-75
2022/05/16 06:30:19;;;;;;;2.20;1.10;;;14.40;99.90;;;;;;5058256;28;20039;-75
2022/05/16 06:32:47;;;;;;;3.38;1.13;;;14.50;99.90;;;;;;5042102;28;20070;-74
2022/05/16 06:35:13;;;;;;;3.13;1.00;;;14.40;99.90;;;;;;5074963;28;20116;-75
2022/05/16 06:37:39;;;;;;;1.75;1.35;;;14.50;99.90;;;;;;5074940;28;20067;-75
2022/05/16 06:40:07;;;;;;;2.80;0.73;;;14.70;99.90;;;;;;5074872;28;20039;-75
2022/05/16 06:42:33;;;;;;;2.08;1.25;;;14.80;99.90;;;;;;5074952;28;20036;-74
2022/05/16 06:44:58;;;;;;;5.20;1.10;;;15.00;99.90;;;;;;5058076;28;20074;-76
2022/05/16 06:47:24;;;;;;;2.42;1.05;;;15.30;99.90;;;;;;5075096;28;20504;-81
2022/05/16 06:49:51;;;;;;;4.80;1.50;;;15.60;99.90;;;;;;5042090;28;20471;-75
2022/05/16 06:52:18;;;;;;;4.50;1.48;;;15.80;99.90;;;;;;5074830;28;20051;-77
2022/05/16 06:54:44;;;;;;;3.58;1.50;;;16.00;99.90;;;;;;5041762;28;20071;-76
2022/05/16 06:57:11;;;;;;;2.10;0.93;;;16.20;99.90;;;;;;5058038;28;20039;-77
2022/05/16 06:59:37;;;;;;;2.97;1.30;;;16.40;99.90;;;;;;5041448;28;20127;-77
2022/05/16 07:02:04;;;;;;;5.15;1.25;;;16.40;99.90;;;;;;5044389;28;20132;-76
2022/05/16 07:04:29;;;;;;;1.95;1.08;;;16.80;99.90;;;;;;5062430;28;20475;-77
2022/05/16 07:06:55;;;;;;;2.47;1.50;;;16.90;99.90;;;;;;5062160;28;20036;-76
2022/05/16 07:09:21;;;;;;;2.22;1.13;;;16.90;99.90;;;;;;5062335;28;20040;-76
2022/05/16 07:11:47;;;;;;;3.85;1.00;;;17.20;99.90;;;;;;5045414;28;20050;-76
2022/05/16 07:14:12;;;;;;;3.75;1.00;;;17.30;99.90;;;;;;5078648;28;20057;-76
2022/05/16 07:16:38;;;;;;;4.25;1.25;;;17.40;99.90;;;;;;5045339;28;20036;-76
2022/05/16 07:19:04;;;;;;;6.38;1.05;;;17.50;99.90;;;;;;5062191;28;20079;-76
2022/05/16 07:21:30;;;;;;;3.17;1.48;;;17.60;99.90;;;;;;5078925;28;20074;-76
2022/05/16 07:23:55;;;;;;;1.48;1.08;;;17.70;99.90;;;;;;5078552;28;20041;-76
2022/05/16 07:29:05;;;;;;;5.32;1.40;;;18.10;99.90;;;;;;5078328;28;20123;-76
2022/05/16 07:31:31;;;;;;;2.20;1.17;;;18.30;99.90;;;;;;5078595;28;20075;-76
2022/05/16 07:33:58;;;;;;;2.95;1.38;;;18.40;99.90;;;;;;5061690;28;20105;-76
2022/05/16 07:36:24;;;;;;;3.00;1.30;;;18.50;99.90;;;;;;5061666;28;20089;-76
2022/05/16 07:38:50;;;;;;;1.27;1.00;;;18.50;99.90;;;;;;5061656;28;20040;-76
2022/05/16 07:41:16;;;;;;;2.53;1.30;;;18.70;99.90;;;;;;5078152;28;20043;-76
2022/05/16 07:43:42;;;;;;;1.73;1.30;;;18.90;99.90;;;;;;5078186;28;20039;-76
2022/05/16 07:46:09;;;;;;;1.30;1.00;;;19.10;99.90;;;;;;5061332;28;20140;-76
2022/05/16 07:48:35;;;;;;;2.63;1.40;;;19.10;99.90;;;;;;5078269;28;20040;-77
2022/05/16 07:51:00;;;;;;;2.92;1.10;;;19.20;99.90;;;;;;5061629;28;20063;-77
2022/05/16 07:53:26;;;;;;;3.42;1.60;;;19.30;99.90;;;;;;5061242;28;20051;-76
2022/05/16 07:55:54;;;;;;;1.85;1.27;;;19.40;99.90;;;;;;5061267;28;20062;-77
2022/05/16 07:58:21;;;;;;;2.58;1.40;;;19.50;99.90;;;;;;5077863;28;20040;-76
2022/05/16 08:00:50;;;;;;;2.45;1.00;;;19.60;99.90;;;;;;5061076;28;20055;-77
2022/05/16 08:03:19;;;;;;;2.42;1.20;;;19.60;99.90;;;;;;5061810;28;20618;-77
2022/05/16 08:05:46;;;;;;;2.60;1.23;;;19.70;99.90;;;;;;5077682;28;20042;-78
2022/05/16 08:10:58;;;;;;;6.90;1.70;;;19.80;99.90;;;;;;5077527;28;20078;-77
2022/05/16 08:13:25;;;;;;;4.30;1.35;;;19.90;99.90;;;;;;5077186;28;20064;-77
2022/05/16 08:15:50;;;;;;;1.75;1.00;;;20.10;99.90;;;;;;5060899;28;20051;-77
2022/05/16 08:18:16;;;;;;;2.78;1.58;;;20.10;99.90;;;;;;5060821;28;20473;-77
2022/05/16 08:20:43;;;;;;;2.08;0.93;;;20.30;99.90;;;;;;5060817;28;20036;-77
2022/05/16 08:23:15;;;;;;;10.40;1.48;;;20.50;99.90;;;;;;5077401;28;20040;-77
2022/05/16 08:25:43;;;;;;;7.40;1.30;;;20.70;99.90;;;;;;5060963;28;20032;-77
2022/05/16 08:28:09;;;;;;;5.63;1.25;;;20.90;99.90;;;;;;5060620;28;20036;-77
2022/05/16 08:30:35;;;;;;;2.67;1.35;;;21.00;99.90;;;;;;5060496;28;20040;-77
2022/05/16 08:33:01;;;;;;;2.67;0.98;;;21.10;99.90;;;;;;5060545;28;20043;-77
2022/05/16 08:35:28;;;;;;;2.17;0.85;;;21.30;99.90;;;;;;5077419;28;20047;-77
2022/05/16 08:40:43;;;;;;;1.60;1.10;;;21.40;99.90;;;;;;5062987;28;20067;-77
2022/05/16 08:43:32;;;;;;;4.97;1.65;;;21.50;99.90;;;;;;5077039;28;20044;-77
2022/05/16 08:46:04;;;;;;;3.22;1.25;;;21.70;99.90;;;;;;5060342;28;20135;-78
2022/05/16 08:48:43;;;;;;;3.60;1.20;;;21.70;99.90;;;;;;5077210;28;20415;-77
2022/05/16 08:51:13;;;;;;;1.58;0.93;;;;;;;;;;5077198;28;20044;-77
2022/05/16 08:53:45;;;;;;;6.20;1.63;;;22.00;99.30;;;;;;5077088;28;20173;-77
2022/05/16 08:56:19;;;;;;;1.88;0.98;;;22.20;99.40;;;;;;5077167;28;20042;-77
2022/05/16 08:59:09;;;;;;;2.33;1.00;;;22.30;99.20;;;;;;5060097;28;20055;-77
2022/05/16 09:01:44;;;;;;;1.27;1.07;;;22.40;97.60;;;;;;5060069;28;20044;-77
2022/05/16 09:04:30;;;;;;;1.80;0.88;;;22.50;98.00;;;;;;5076663;28;20079;-78
2022/05/16 09:07:32;;;;;;;1.70;0.85;;;22.70;98.10;;;;;;5060137;28;20050;-77
2022/05/16 09:10:04;;;;;;;3.92;1.48;;;22.70;97.30;;;;;;5076454;28;20032;-78
2022/05/16 09:12:49;;;;;;;3.25;1.02;;;22.90;97.80;;;;;;5076476;28;20080;-78
2022/05/16 09:15:31;;;;;;;2.67;1.40;;;22.90;97.80;;;;;;5076304;28;20598;-78
2022/05/16 09:18:24;;;;;;;2.17;1.15;;;22.90;96.70;;;;;;5093229;28;20048;-77
2022/05/16 09:21:05;;;;;;;3.92;0.98;;;22.90;96.50;;;;;;5057462;28;20411;-76
2022/05/16 09:23:46;;;;;;;;;;;22.90;97.10;;;;;;5059532;28;20051;-76
2022/05/16 09:26:30;;;;;;;2.10;1.00;;;23.00;96.60;;;;;;5076262;28;19916;-77
2022/05/16 09:29:00;;;;;;;0.85;0.80;;;23.10;97.00;;;;;;5076096;28;20088;-77
2022/05/16 09:31:43;;;;;;;4.50;1.33;;;23.20;95.80;;;;;;5076409;28;20051;-77
2022/05/16 09:34:10;;;;;;;1.00;0.90;;;23.30;96.00;;;;;;5059380;28;20075;-76
2022/05/16 09:36:41;;;;;;;3.42;1.25;;;23.40;95.50;;;;;;5059942;28;20089;-76
2022/05/16 09:39:10;;;;;;;2.33;1.08;;;23.50;95.20;;;;;;5076147;28;20040;-77
2022/05/16 09:41:44;;;;;;;2.00;1.30;;;23.50;95.40;;;;;;5075905;28;20123;-77
2022/05/16 09:44:15;;;;;;;3.17;1.30;;;23.50;95.20;;;;;;5075849;28;20197;-77
2022/05/16 09:46:43;;;;;;;3.45;1.42;;;23.80;95.70;;;;;;5059140;28;20044;-77
2022/05/16 09:49:20;;;;;;;6.75;1.20;;;24.00;99.70;;;;;;5075692;28;20067;-77
2022/05/16 09:51:57;;;;;;;3.33;1.00;;;24.20;97.80;;;;;;5075756;28;20104;-77
2022/05/16 09:54:31;;;;;;;1.50;1.02;;;24.40;97.60;;;;;;5059317;28;20040;-75
2022/05/16 09:57:20;;;;;;;2.58;1.00;;;24.50;97.40;;;;;;5058971;28;20052;-75
2022/05/16 09:59:50;;;;;;;1.60;1.00;;;;;;;;;;5075581;28;20059;-75
2022/05/16 10:02:22;;;;;;;1.30;1.05;;;24.60;98.20;;;;;;5075757;28;20395;-75
2022/05/16 10:04:52;;;;;;;1.63;0.88;;;24.60;99.90;;;;;;5075501;28;20048;-74
2022/05/16 10:07:22;;;;;;;2.17;1.00;;;24.60;99.90;;;;;;5075439;28;20078;-75
2022/05/16 10:09:51;;;;;;;1.75;0.90;;;24.50;99.90;;;;;;5075359;28;20035;-74
2022/05/16 10:12:19;;;;;;;2.90;1.08;;;24.20;99.90;;;;;;5075433;28;20086;-75
2022/05/16 10:14:46;;;;;;;2.97;1.10;;;24.50;99.90;;;;;;5075107;28;20083;-75
2022/05/16 10:17:23;;;;;;;1.02;0.90;;;24.80;99.90;;;;;;5058920;28;20044;-75
2022/05/16 10:19:55;;;;;;;0.80;0.77;;;24.80;93.70;;;;;;5075248;28;20046;-75
2022/05/16 10:22:25;;;;;;;3.63;1.13;;;25.30;99.90;;;;;;5075487;28;20377;-75
2022/05/16 10:24:53;;;;;;;4.28;1.20;;;25.20;99.90;;;;;;5075050;28;20051;-75
2022/05/16 10:27:42;;;;;;;1.15;0.80;;;25.20;99.90;;;;;;5058683;28;20570;-75
2022/05/16 10:30:20;;;;;;;1.73;1.30;;;25.30;99.90;;;;;;5074990;28;20115;-75
2022/05/16 10:35:45;;;;;;;2.22;1.20;;;25.30;98.50;;;;;;5074018;28;20098;-75
2022/05/16 10:38:21;;;;;;;1.88;1.13;;;25.30;98.10;;;;;;5074745;28;20044;-75
2022/05/16 10:40:54;;;;;;;2.00;1.00;;;25.30;97.70;;;;;;5074977;28;20059;-75
2022/05/16 10:43:49;;;;;;;4.07;1.27;;;25.40;97.90;;;;;;5058272;28;20288;-76
2022/05/16 10:46:24;;;;;;;6.47;1.20;;;25.40;95.70;;;;;;5055260;28;20148;-75
2022/05/16 10:48:58;;;;;;;5.60;1.15;;;25.30;96.90;;;;;;5058399;28;20040;-75
2022/05/16 10:51:38;;;;;;;5.80;1.52;;;25.30;96.90;;;;;;5074706;28;20075;-75
2022/05/16 10:54:31;;;;;;;4.50;1.40;;;25.30;94.10;;;;;;5057933;28;20033;-75
2022/05/16 10:57:07;;;;;;;1.98;1.15;;;25.40;93.50;;;;;;5074928;28;20177;-75
2022/05/16 10:59:54;;;;;;;1.90;0.90;;;25.30;94.80;;;;;;5074591;28;20040;-75
2022/05/16 11:02:45;;;;;;;3.92;1.05;;;25.40;93.40;;;;;;5057898;28;20127;-74
2022/05/16 11:05:21;;;;;;;1.70;1.00;;;25.20;93.50;;;;;;5057848;28;20079;-75
2022/05/16 11:08:10;;;;;;;4.50;1.10;;;25.20;94.10;;;;;;5057907;28;20040;-75
2022/05/16 11:10:39;;;;;;;2.90;1.15;;;25.40;92.70;;;;;;5074363;28;20465;-75
2022/05/16 11:13:20;;;;;;;4.07;1.08;;;25.50;90.20;;;;;;5057749;28;20089;-76
2022/05/16 11:15:55;;;;;;;1.70;1.10;;;25.50;91.10;;;;;;5058031;28;20430;-74
2022/05/16 11:18:34;;;;;;;2.47;0.95;;;25.50;91.40;;;;;;5057908;28;20479;-74
2022/05/16 11:21:22;;;;;;;2.55;0.80;;;25.50;91.70;;;;;;5074654;28;20044;-74
2022/05/16 11:24:26;;;;;;;2.35;0.90;;;25.30;90.70;;;;;;5057934;28;20476;-74
2022/05/16 11:27:19;;;;;;;3.22;1.20;;;25.10;91.20;;;;;;5074856;28;20047;-74
2022/05/16 11:30:08;;;;;;;1.70;1.27;;;24.90;90.90;;;;;;5074500;28;20499;-74
2022/05/16 11:33:03;;;;;;;2.42;1.13;;;24.60;90.80;;;;;;5074468;28;20051;-75
2022/05/16 11:35:41;;;;;;;2.65;1.33;;;24.50;91.20;;;;;;5057630;28;20062;-75
2022/05/16 11:38:26;;;;;;;1.63;1.10;;;24.30;91.40;;;;;;5057629;28;20040;-74
2022/05/16 11:41:10;;;;;;;1.80;1.02;;;24.20;91.20;;;;;;5057737;28;20126;-74
2022/05/16 11:43:42;;;;;;;2.78;1.15;;;24.10;91.80;;;;;;5074646;28;20441;-75
2022/05/16 11:46:26;;;;;;;2.30;1.10;;;24.00;92.10;;;;;;5057641;28;20134;-74
2022/05/16 11:49:03;;;;;;;2.97;1.30;;;23.80;92.50;;;;;;5061138;28;20040;-75
2022/05/16 11:51:50;;;;;;;2.40;1.20;;;23.80;92.80;;;;;;5078043;28;20040;-74
2022/05/16 11:54:21;;;;;;;2.28;0.90;;;23.70;93.80;;;;;;5078031;28;20046;-74
2022/05/16 12:02:30;;;;;;;5.32;1.58;;;23.30;95.80;;;;;;5077817;28;20410;-76
2022/05/16 12:05:11;;;;;;;4.38;1.50;;;23.20;96.40;;;;;;5078094;28;20542;-76
2022/05/16 12:07:59;;;;;;;2.45;1.50;;;23.00;97.70;;;;;;5060974;28;20048;-75
2022/05/16 12:10:28;;;;;;;1.65;1.10;;;22.90;96.90;;;;;;5060942;28;20040;-76
2022/05/16 12:13:27;;;;;;;3.00;1.98;;;22.80;98.10;;;;;;5060814;28;20040;-76
2022/05/16 12:16:14;;;;;;;3.47;1.42;;;;;;;;;;5061006;28;20048;-75
2022/05/16 12:18:43;;;;;;;2.35;1.35;;;;;;;;;;5077582;28;20043;-75
2022/05/16 12:21:30;;;;;;;2.45;1.50;;;22.60;99.90;;;;;;5061028;28;20047;-74
2022/05/16 12:23:59;;;;;;;3.92;1.92;;;22.80;99.90;;;;;;5077772;28;20447;-75
2022/05/16 12:26:32;;;;;;;2.88;1.30;;;23.00;99.90;;;;;;5077364;28;20044;-75
2022/05/16 12:29:08;;;;;;;4.95;1.50;;;22.80;99.90;;;;;;5077286;28;20047;-75
2022/05/16 12:31:52;;;;;;;2.90;1.60;;;22.80;99.90;;;;;;5077325;28;20043;-75
2022/05/16 12:34:42;;;;;;;2.15;1.55;;;22.90;99.90;;;;;;5077266;28;20122;-75
2022/05/16 12:37:11;;;;;;;3.25;1.42;;;22.90;99.90;;;;;;5067706;28;20040;-75
2022/05/16 12:40:03;;;;;;;3.75;1.63;;;22.90;99.90;;;;;;5077098;28;20048;-75
2022/05/16 12:43:12;;;;;;;1.85;1.20;;;23.10;99.90;;;;;;5032815;28;20055;-75
2022/05/16 12:45:46;;;;;;;4.47;1.33;;;23.10;99.90;;;;;;5060368;28;20087;-75
2022/05/16 12:48:42;;;;;;;2.90;1.63;;;23.00;99.90;;;;;;5077054;28;20075;-74
2022/05/16 12:51:28;;;;;;;2.22;1.63;;;22.60;99.90;;;;;;5076909;28;20051;-75
2022/05/16 12:54:09;;;;;;;2.67;1.63;;;23.10;99.90;;;;;;5060211;28;20040;-75
2022/05/16 12:56:41;;;;;;;2.38;1.30;;;23.00;99.90;;;;;;5060130;28;20036;-75
2022/05/16 12:59:30;;;;;;;3.75;1.75;;;23.10;99.90;;;;;;5075877;28;20109;-75
2022/05/16 13:02:08;;;;;;;3.42;1.58;;;23.20;99.90;;;;;;5076704;28;20069;-74
2022/05/16 13:04:42;;;;;;;2.72;1.70;;;23.30;99.90;;;;;;5094841;28;20044;-74
2022/05/16 13:07:36;;;;;;;3.22;1.55;;;23.50;99.90;;;;;;5076919;28;20071;-74
2022/05/16 13:10:34;;;;;;;4.30;1.67;;;;;;;;;;5059934;28;20036;-74
2022/05/16 13:13:25;;;;;;;2.58;1.52;;;;;;;;;;5016699;28;20048;-74
2022/05/16 13:15:51;;;;;;;;;;;;;;;;;;5076863;28;20052;-74
2022/05/16 13:18:25;;;;;;;3.97;1.55;;;;;;;;;;5060027;28;19927;-75
2022/05/16 13:20:52;;;;;;;4.60;1.70;;;;;;;;;;5059649;28;20082;-74
2022/05/16 13:23:19;;;;;;;3.15;1.20;;;;;;;;;;5059924;28;20479;-74
2022/05/16 13:31:33;;;;;;;2.90;1.60;;;;;;;;;;5076760;28;20048;-74
2022/05/16 13:34:00;;;;;;;3.17;1.55;;;;;;;;;;5061363;28;20169;-74
2022/05/16 13:36:27;;;;;;;2.33;1.48;;;;;;;;;;5076335;28;20032;-74
2022/05/16 13:38:54;;;;;;;3.40;1.42;;;;;;;;;;5076188;28;20097;-74
2022/05/16 13:41:23;;;;;;;1.80;1.50;;;;;;;;;;5059257;28;20048;-74
2022/05/16 13:43:50;;;;;;;6.80;1.80;;;;;;;;;;5043175;28;20040;-74
2022/05/16 13:46:16;;;;;;;3.00;1.40;;;;;;;;;;5059203;28;20071;-75
2022/05/16 13:48:42;;;;;;;2.70;1.30;;;;;;;;;;5075683;28;20040;-75
2022/05/16 13:51:09;;;;;;;1.17;1.08;;;;;;;;;;5059116;28;20080;-75
2022/05/16 13:53:37;;;;;;;3.95;1.50;;;;;;;;;;5075976;28;20397;-75